sensor_id;sensor_type;location;lat;lon;timestamp;P1;durP1;ratioP1;P2;durP2;ratioP2
47625;SDS011;33342;45.574;9.252;2022-08-21T00:01:42;3.50;;;1.00;;
47625;SDS011;33342;45.574;9.252;2022-08-21T00:04:10;1.98;;;0.90;;
47625;SDS011;33342;45.574;9.252;2022-08-21T00:06:49;3.58;;;0.90;;
47625;SDS011;33342;45.574;9.252;2022-08-21T00:09:17;2.97;;;1.20;;
47625;SDS011;33342;45.574;9.252;2022-08-21T00:11:45;3.17;;;1.25;;
47625;SDS011;33342;45.574;9.252;2022-08-21T00:14:16;2.58;;;1.10;;
47625;SDS011;33342;45.574;9.252;2022-08-21T00:16:43;2.70;;;1.10;;
47625;SDS011;33342;45.574;9.252;2022-08-21T00:19:10;4.97;;;1.27;;
47625;SDS011;33342;45.574;9.252;2022-08-21T00:21:38;2.95;;;1.00;;
47625;SDS011;33342;45.574;9.252;2022-08-21T00:24:09;2.22;;;1.00;;
47625;SDS011;33342;45.574;9.252;2022-08-21T00:26:37;2.63;;;1.00;;
47625;SDS011;33342;45.574;9.252;2022-08-21T00:29:04;2.45;;;0.90;;
47625;SDS011;33342;45.574;9.252;2022-08-21T00:31:31;1.70;;;0.73;;
47625;SDS011;33342;45.574;9.252;2022-08-21T00:33:59;3.40;;;0.90;;
47625;SDS011;33342;45.574;9.252;2022-08-21T00:36:27;1.77;;;0.75;;
47625;SDS011;33342;45.574;9.252;2022-08-21T00:38:55;2.88;;;1.10;;
47625;SDS011;33342;45.574;9.252;2022-08-21T00:41:23;2.80;;;1.15;;
47625;SDS011;33342;45.574;9.252;2022-08-21T00:44:07;2.95;;;1.00;;
47625;SDS011;33342;45.574;9.252;2022-08-21T00:46:38;2.20;;;0.88;;
47625;SDS011;33342;45.574;9.252;2022-08-21T00:49:09;3.20;;;1.10;;
47625;SDS011;33342;45.574;9.252;2022-08-21T00:51:45;3.58;;;1.30;;
47625;SDS011;33342;45.574;9.252;2022-08-21T00:54:15;3.72;;;1.02;;
47625;SDS011;33342;45.574;9.252;2022-08-21T00:56:46;3.17;;;1.17;;
47625;SDS011;33342;45.574;9.252;2022-08-21T00:59:17;3.22;;;1.17;;
47625;SDS011;33342;45.574;9.252;2022-08-21T01:01:46;2.47;;;0.85;;
47625;SDS011;33342;45.574;9.252;2022-08-21T01:04:14;2.03;;;1.00;;
47625;SDS011;33342;45.574;9.252;2022-08-21T01:06:42;2.33;;;1.20;;
47625;SDS011;33342;45.574;9.252;2022-08-21T01:09:10;1.77;;;1.00;;
47625;SDS011;33342;45.574;9.252;2022-08-21T01:11:38;3.22;;;1.25;;
47625;SDS011;33342;45.574;9.252;2022-08-21T01:14:08;2.00;;;0.90;;
47625;SDS011;33342;45.574;9.252;2022-08-21T01:16:39;3.88;;;1.00;;
47625;SDS011;33342;45.574;9.252;2022-08-21T01:19:08;1.92;;;0.90;;
47625;SDS011;33342;45.574;9.252;2022-08-21T01:21:38;3.22;;;0.90;;
47625;SDS011;33342;45.574;9.252;2022-08-21T01:24:05;3.42;;;1.10;;
47625;SDS011;33342;45.574;9.252;2022-08-21T01:26:33;2.10;;;0.88;;
47625;SDS011;33342;45.574;9.252;2022-08-21T01:29:09;2.45;;;0.77;;
47625;SDS011;33342;45.574;9.252;2022-08-21T01:31:39;5.05;;;1.00;;
47625;SDS011;33342;45.574;9.252;2022-08-21T01:34:06;1.92;;;0.80;;
47625;SDS011;33342;45.574;9.252;2022-08-21T01:36:34;3.97;;;1.00;;
47625;SDS011;33342;45.574;9.252;2022-08-21T01:39:02;2.58;;;0.93;;
47625;SDS011;33342;45.574;9.252;2022-08-21T01:41:30;2.47;;;1.10;;
47625;SDS011;33342;45.574;9.252;2022-08-21T01:43:57;4.03;;;0.88;;
47625;SDS011;33342;45.574;9.252;2022-08-21T01:46:25;1.25;;;0.75;;
47625;SDS011;33342;45.574;9.252;2022-08-21T01:48:52;2.88;;;0.80;;
47625;SDS011;33342;45.574;9.252;2022-08-21T01:51:19;2.05;;;0.73;;
47625;SDS011;33342;45.574;9.252;2022-08-21T01:53:46;1.63;;;0.68;;
47625;SDS011;33342;45.574;9.252;2022-08-21T01:56:14;2.53;;;0.80;;
47625;SDS011;33342;45.574;9.252;2022-08-21T01:58:43;1.88;;;0.75;;
47625;SDS011;33342;45.574;9.252;2022-08-21T02:01:12;1.88;;;0.80;;
47625;SDS011;33342;45.574;9.252;2022-08-21T02:03:39;2.90;;;0.70;;
47625;SDS011;33342;45.574;9.252;2022-08-21T02:06:11;3.08;;;0.73;;
47625;SDS011;33342;45.574;9.252;2022-08-21T02:08:41;1.90;;;0.75;;
47625;SDS011;33342;45.574;9.252;2022-08-21T02:11:08;3.10;;;0.70;;
47625;SDS011;33342;45.574;9.252;2022-08-21T02:13:35;1.45;;;0.70;;
47625;SDS011;33342;45.574;9.252;2022-08-21T02:16:02;2.03;;;0.73;;
47625;SDS011;33342;45.574;9.252;2022-08-21T02:18:30;1.33;;;0.60;;
47625;SDS011;33342;45.574;9.252;2022-08-21T02:20:57;1.17;;;0.60;;
47625;SDS011;33342;45.574;9.252;2022-08-21T02:23:24;1.98;;;0.80;;
47625;SDS011;33342;45.574;9.252;2022-08-21T02:26:02;2.03;;;0.80;;
47625;SDS011;33342;45.574;9.252;2022-08-21T02:28:31;2.78;;;0.80;;
47625;SDS011;33342;45.574;9.252;2022-08-21T02:30:59;3.67;;;0.73;;
47625;SDS011;33342;45.574;9.252;2022-08-21T02:33:28;3.67;;;0.73;;
47625;SDS011;33342;45.574;9.252;2022-08-21T02:35:55;1.27;;;0.80;;
47625;SDS011;33342;45.574;9.252;2022-08-21T02:38:24;1.90;;;0.70;;
47625;SDS011;33342;45.574;9.252;2022-08-21T02:40:53;1.35;;;0.60;;
47625;SDS011;33342;45.574;9.252;2022-08-21T02:43:22;3.92;;;1.05;;
47625;SDS011;33342;45.574;9.252;2022-08-21T02:45:54;1.77;;;0.80;;
47625;SDS011;33342;45.574;9.252;2022-08-21T02:48:27;2.70;;;0.70;;
47625;SDS011;33342;45.574;9.252;2022-08-21T02:50:57;1.75;;;0.70;;
47625;SDS011;33342;45.574;9.252;2022-08-21T02:53:29;2.17;;;0.82;;
47625;SDS011;33342;45.574;9.252;2022-08-21T02:55:57;2.13;;;0.82;;
47625;SDS011;33342;45.574;9.252;2022-08-21T02:58:28;1.88;;;0.70;;
47625;SDS011;33342;45.574;9.252;2022-08-21T03:01:00;3.63;;;1.00;;
47625;SDS011;33342;45.574;9.252;2022-08-21T03:03:27;2.55;;;0.70;;
47625;SDS011;33342;45.574;9.252;2022-08-21T03:05:55;3.58;;;0.93;;
47625;SDS011;33342;45.574;9.252;2022-08-21T03:08:23;2.40;;;0.80;;
47625;SDS011;33342;45.574;9.252;2022-08-21T03:10:53;1.85;;;0.80;;
47625;SDS011;33342;45.574;9.252;2022-08-21T03:13:20;4.30;;;1.00;;
47625;SDS011;33342;45.574;9.252;2022-08-21T03:15:48;4.38;;;0.90;;
47625;SDS011;33342;45.574;9.252;2022-08-21T03:18:16;1.42;;;0.60;;
47625;SDS011;33342;45.574;9.252;2022-08-21T03:20:44;2.70;;;0.77;;
47625;SDS011;33342;45.574;9.252;2022-08-21T03:23:12;2.05;;;0.73;;
47625;SDS011;33342;45.574;9.252;2022-08-21T03:25:45;2.20;;;0.80;;
47625;SDS011;33342;45.574;9.252;2022-08-21T03:28:16;1.67;;;0.70;;
47625;SDS011;33342;45.574;9.252;2022-08-21T03:30:45;3.47;;;0.60;;
47625;SDS011;33342;45.574;9.252;2022-08-21T03:33:14;2.35;;;0.93;;
47625;SDS011;33342;45.574;9.252;2022-08-21T03:35:54;2.83;;;0.65;;
47625;SDS011;33342;45.574;9.252;2022-08-21T03:38:28;3.97;;;1.00;;
47625;SDS011;33342;45.574;9.252;2022-08-21T03:40:57;2.63;;;0.85;;
47625;SDS011;33342;45.574;9.252;2022-08-21T03:43:25;3.08;;;0.90;;
47625;SDS011;33342;45.574;9.252;2022-08-21T03:45:56;2.70;;;0.80;;
47625;SDS011;33342;45.574;9.252;2022-08-21T03:48:23;4.65;;;0.90;;
47625;SDS011;33342;45.574;9.252;2022-08-21T03:50:51;2.72;;;0.90;;
47625;SDS011;33342;45.574;9.252;2022-08-21T03:53:19;3.10;;;0.80;;
47625;SDS011;33342;45.574;9.252;2022-08-21T03:55:47;3.65;;;1.00;;
47625;SDS011;33342;45.574;9.252;2022-08-21T03:58:16;2.60;;;0.80;;
47625;SDS011;33342;45.574;9.252;2022-08-21T04:00:46;4.93;;;1.00;;
47625;SDS011;33342;45.574;9.252;2022-08-21T04:03:15;1.92;;;0.80;;
47625;SDS011;33342;45.574;9.252;2022-08-21T04:05:43;3.90;;;0.70;;
47625;SDS011;33342;45.574;9.252;2022-08-21T04:08:12;3.60;;;0.90;;
47625;SDS011;33342;45.574;9.252;2022-08-21T04:10:40;2.13;;;0.70;;
47625;SDS011;33342;45.574;9.252;2022-08-21T04:13:07;2.28;;;0.73;;
47625;SDS011;33342;45.574;9.252;2022-08-21T04:15:35;2.58;;;0.70;;
47625;SDS011;33342;45.574;9.252;2022-08-21T04:18:02;1.27;;;0.60;;
47625;SDS011;33342;45.574;9.252;2022-08-21T04:20:30;4.20;;;1.02;;
47625;SDS011;33342;45.574;9.252;2022-08-21T04:22:57;2.17;;;0.50;;
47625;SDS011;33342;45.574;9.252;2022-08-21T04:25:25;1.83;;;0.80;;
47625;SDS011;33342;45.574;9.252;2022-08-21T04:27:52;3.05;;;0.80;;
47625;SDS011;33342;45.574;9.252;2022-08-21T04:30:19;2.58;;;0.90;;
47625;SDS011;33342;45.574;9.252;2022-08-21T04:32:53;4.25;;;1.08;;
47625;SDS011;33342;45.574;9.252;2022-08-21T04:35:22;2.22;;;1.23;;
47625;SDS011;33342;45.574;9.252;2022-08-21T04:37:51;4.13;;;1.20;;
47625;SDS011;33342;45.574;9.252;2022-08-21T04:40:18;4.85;;;1.10;;
47625;SDS011;33342;45.574;9.252;2022-08-21T04:45:23;4.18;;;1.20;;
47625;SDS011;33342;45.574;9.252;2022-08-21T04:47:54;3.33;;;0.82;;
47625;SDS011;33342;45.574;9.252;2022-08-21T04:50:25;2.90;;;0.80;;
47625;SDS011;33342;45.574;9.252;2022-08-21T04:53:03;2.35;;;0.88;;
47625;SDS011;33342;45.574;9.252;2022-08-21T04:55:35;4.03;;;0.90;;
47625;SDS011;33342;45.574;9.252;2022-08-21T04:58:05;3.10;;;0.88;;
47625;SDS011;33342;45.574;9.252;2022-08-21T05:00:36;1.98;;;0.80;;
47625;SDS011;33342;45.574;9.252;2022-08-21T05:03:03;2.63;;;0.98;;
47625;SDS011;33342;45.574;9.252;2022-08-21T05:05:32;2.38;;;0.70;;
47625;SDS011;33342;45.574;9.252;2022-08-21T05:08:01;1.25;;;0.70;;
47625;SDS011;33342;45.574;9.252;2022-08-21T05:10:29;3.58;;;1.10;;
47625;SDS011;33342;45.574;9.252;2022-08-21T05:12:57;1.92;;;0.68;;
47625;SDS011;33342;45.574;9.252;2022-08-21T05:15:26;1.98;;;0.68;;
47625;SDS011;33342;45.574;9.252;2022-08-21T05:17:54;2.35;;;0.90;;
47625;SDS011;33342;45.574;9.252;2022-08-21T05:20:26;4.10;;;1.10;;
47625;SDS011;33342;45.574;9.252;2022-08-21T05:22:57;3.22;;;1.33;;
47625;SDS011;33342;45.574;9.252;2022-08-21T05:25:25;2.08;;;0.98;;
47625;SDS011;33342;45.574;9.252;2022-08-21T05:27:53;4.25;;;1.10;;
47625;SDS011;33342;45.574;9.252;2022-08-21T05:30:23;3.95;;;1.25;;
47625;SDS011;33342;45.574;9.252;2022-08-21T05:32:55;2.17;;;1.00;;
47625;SDS011;33342;45.574;9.252;2022-08-21T05:35:26;3.05;;;0.95;;
47625;SDS011;33342;45.574;9.252;2022-08-21T05:37:55;2.47;;;0.95;;
47625;SDS011;33342;45.574;9.252;2022-08-21T05:40:23;3.78;;;1.10;;
47625;SDS011;33342;45.574;9.252;2022-08-21T05:42:54;3.42;;;0.90;;
47625;SDS011;33342;45.574;9.252;2022-08-21T05:45:23;3.42;;;1.30;;
47625;SDS011;33342;45.574;9.252;2022-08-21T05:50:39;3.78;;;1.33;;
47625;SDS011;33342;45.574;9.252;2022-08-21T05:53:08;4.00;;;1.55;;
47625;SDS011;33342;45.574;9.252;2022-08-21T05:55:36;2.75;;;1.25;;
47625;SDS011;33342;45.574;9.252;2022-08-21T05:58:11;2.17;;;1.05;;
47625;SDS011;33342;45.574;9.252;2022-08-21T06:00:39;2.80;;;1.00;;
47625;SDS011;33342;45.574;9.252;2022-08-21T06:03:14;2.78;;;1.02;;
47625;SDS011;33342;45.574;9.252;2022-08-21T06:05:43;4.10;;;1.10;;
47625;SDS011;33342;45.574;9.252;2022-08-21T06:08:12;2.10;;;0.90;;
47625;SDS011;33342;45.574;9.252;2022-08-21T06:10:42;2.90;;;1.00;;
47625;SDS011;33342;45.574;9.252;2022-08-21T06:13:09;2.85;;;0.95;;
47625;SDS011;33342;45.574;9.252;2022-08-21T06:15:38;3.80;;;0.95;;
47625;SDS011;33342;45.574;9.252;2022-08-21T06:18:05;3.10;;;1.00;;
47625;SDS011;33342;45.574;9.252;2022-08-21T06:20:33;2.53;;;1.00;;
47625;SDS011;33342;45.574;9.252;2022-08-21T06:23:01;2.05;;;1.30;;
47625;SDS011;33342;45.574;9.252;2022-08-21T06:25:29;2.50;;;1.25;;
47625;SDS011;33342;45.574;9.252;2022-08-21T06:28:00;4.20;;;1.10;;
47625;SDS011;33342;45.574;9.252;2022-08-21T06:30:33;2.78;;;1.20;;
47625;SDS011;33342;45.574;9.252;2022-08-21T06:33:04;2.97;;;0.90;;
47625;SDS011;33342;45.574;9.252;2022-08-21T06:35:32;2.92;;;1.10;;
47625;SDS011;33342;45.574;9.252;2022-08-21T06:38:01;2.47;;;1.25;;
47625;SDS011;33342;45.574;9.252;2022-08-21T06:40:29;1.75;;;0.90;;
47625;SDS011;33342;45.574;9.252;2022-08-21T06:43:08;3.15;;;1.52;;
47625;SDS011;33342;45.574;9.252;2022-08-21T06:45:40;3.08;;;1.17;;
47625;SDS011;33342;45.574;9.252;2022-08-21T06:48:08;5.38;;;1.58;;
47625;SDS011;33342;45.574;9.252;2022-08-21T06:50:36;4.57;;;1.40;;
47625;SDS011;33342;45.574;9.252;2022-08-21T06:53:05;3.85;;;1.40;;
47625;SDS011;33342;45.574;9.252;2022-08-21T06:55:36;3.78;;;1.45;;
47625;SDS011;33342;45.574;9.252;2022-08-21T06:58:05;4.60;;;1.40;;
47625;SDS011;33342;45.574;9.252;2022-08-21T07:00:33;3.75;;;1.23;;
47625;SDS011;33342;45.574;9.252;2022-08-21T07:03:01;2.08;;;1.10;;
47625;SDS011;33342;45.574;9.252;2022-08-21T07:05:29;4.72;;;1.30;;
47625;SDS011;33342;45.574;9.252;2022-08-21T07:07:57;3.05;;;1.27;;
47625;SDS011;33342;45.574;9.252;2022-08-21T07:10:27;3.95;;;1.40;;
47625;SDS011;33342;45.574;9.252;2022-08-21T07:12:54;3.72;;;1.30;;
47625;SDS011;33342;45.574;9.252;2022-08-21T07:15:29;2.58;;;1.05;;
47625;SDS011;33342;45.574;9.252;2022-08-21T07:17:57;2.50;;;1.10;;
47625;SDS011;33342;45.574;9.252;2022-08-21T07:20:26;3.55;;;1.30;;
47625;SDS011;33342;45.574;9.252;2022-08-21T07:22:59;2.60;;;0.98;;
47625;SDS011;33342;45.574;9.252;2022-08-21T07:25:28;4.90;;;1.42;;
47625;SDS011;33342;45.574;9.252;2022-08-21T07:27:58;2.55;;;1.10;;
47625;SDS011;33342;45.574;9.252;2022-08-21T07:30:26;2.40;;;0.90;;
47625;SDS011;33342;45.574;9.252;2022-08-21T07:32:53;3.42;;;1.20;;
47625;SDS011;33342;45.574;9.252;2022-08-21T07:35:23;3.58;;;1.17;;
47625;SDS011;33342;45.574;9.252;2022-08-21T07:37:51;3.22;;;1.17;;
47625;SDS011;33342;45.574;9.252;2022-08-21T07:40:18;7.25;;;1.63;;
47625;SDS011;33342;45.574;9.252;2022-08-21T07:42:46;6.18;;;1.58;;
47625;SDS011;33342;45.574;9.252;2022-08-21T07:45:16;5.45;;;1.23;;
47625;SDS011;33342;45.574;9.252;2022-08-21T07:47:46;4.88;;;1.23;;
47625;SDS011;33342;45.574;9.252;2022-08-21T07:50:14;6.03;;;1.30;;
47625;SDS011;33342;45.574;9.252;2022-08-21T07:52:42;6.43;;;1.45;;
47625;SDS011;33342;45.574;9.252;2022-08-21T07:55:11;2.90;;;1.30;;
47625;SDS011;33342;45.574;9.252;2022-08-21T07:57:39;3.17;;;1.20;;
47625;SDS011;33342;45.574;9.252;2022-08-21T08:00:08;5.60;;;1.20;;
47625;SDS011;33342;45.574;9.252;2022-08-21T08:02:39;4.30;;;1.27;;
47625;SDS011;33342;45.574;9.252;2022-08-21T08:05:09;3.05;;;1.38;;
47625;SDS011;33342;45.574;9.252;2022-08-21T08:07:39;5.82;;;1.40;;
47625;SDS011;33342;45.574;9.252;2022-08-21T08:10:08;3.35;;;1.33;;
47625;SDS011;33342;45.574;9.252;2022-08-21T08:12:39;3.38;;;1.33;;
47625;SDS011;33342;45.574;9.252;2022-08-21T08:15:10;2.00;;;1.20;;
47625;SDS011;33342;45.574;9.252;2022-08-21T08:17:39;3.72;;;1.23;;
47625;SDS011;33342;45.574;9.252;2022-08-21T08:20:06;13.25;;;2.45;;
47625;SDS011;33342;45.574;9.252;2022-08-21T08:22:35;10.23;;;1.70;;
47625;SDS011;33342;45.574;9.252;2022-08-21T08:25:04;4.20;;;1.48;;
47625;SDS011;33342;45.574;9.252;2022-08-21T08:27:35;5.68;;;1.52;;
47625;SDS011;33342;45.574;9.252;2022-08-21T08:30:04;5.35;;;2.30;;
47625;SDS011;33342;45.574;9.252;2022-08-21T08:32:32;4.95;;;1.25;;
47625;SDS011;33342;45.574;9.252;2022-08-21T08:34:59;3.67;;;1.35;;
47625;SDS011;33342;45.574;9.252;2022-08-21T08:37:27;3.97;;;1.38;;
47625;SDS011;33342;45.574;9.252;2022-08-21T08:40:00;20.20;;;3.10;;
47625;SDS011;33342;45.574;9.252;2022-08-21T08:42:32;6.03;;;1.58;;
47625;SDS011;33342;45.574;9.252;2022-08-21T08:47:39;2.30;;;1.15;;
47625;SDS011;33342;45.574;9.252;2022-08-21T08:50:12;2.92;;;1.42;;
47625;SDS011;33342;45.574;9.252;2022-08-21T08:53:01;5.10;;;1.30;;
47625;SDS011;33342;45.574;9.252;2022-08-21T08:55:36;3.72;;;1.30;;
47625;SDS011;33342;45.574;9.252;2022-08-21T08:58:07;2.97;;;1.35;;
47625;SDS011;33342;45.574;9.252;2022-08-21T09:00:39;5.63;;;1.40;;
47625;SDS011;33342;45.574;9.252;2022-08-21T09:03:07;4.25;;;1.55;;
47625;SDS011;33342;45.574;9.252;2022-08-21T09:05:42;9.80;;;1.98;;
47625;SDS011;33342;45.574;9.252;2022-08-21T09:19:43;25.25;;;3.22;;
47625;SDS011;33342;45.574;9.252;2022-08-21T09:25:27;5.53;;;1.50;;
47625;SDS011;33342;45.574;9.252;2022-08-21T09:27:58;7.75;;;1.70;;
47625;SDS011;33342;45.574;9.252;2022-08-21T09:30:27;3.40;;;1.60;;
47625;SDS011;33342;45.574;9.252;2022-08-21T09:32:57;4.20;;;1.38;;
47625;SDS011;33342;45.574;9.252;2022-08-21T09:35:24;6.57;;;1.50;;
47625;SDS011;33342;45.574;9.252;2022-08-21T09:46:04;7.78;;;1.27;;
47625;SDS011;33342;45.574;9.252;2022-08-21T09:48:43;4.05;;;1.58;;
47625;SDS011;33342;45.574;9.252;2022-08-21T09:51:19;1.75;;;0.90;;
47625;SDS011;33342;45.574;9.252;2022-08-21T09:53:55;2.72;;;1.10;;
47625;SDS011;33342;45.574;9.252;2022-08-21T09:56:28;3.22;;;1.10;;
47625;SDS011;33342;45.574;9.252;2022-08-21T09:59:27;2.10;;;1.20;;
47625;SDS011;33342;45.574;9.252;2022-08-21T10:05:02;4.18;;;1.48;;
47625;SDS011;33342;45.574;9.252;2022-08-21T10:07:36;3.50;;;1.48;;
47625;SDS011;33342;45.574;9.252;2022-08-21T10:10:13;3.58;;;1.20;;
47625;SDS011;33342;45.574;9.252;2022-08-21T10:12:53;4.25;;;1.25;;
47625;SDS011;33342;45.574;9.252;2022-08-21T10:15:41;2.03;;;1.00;;
47625;SDS011;33342;45.574;9.252;2022-08-21T10:21:27;3.08;;;1.25;;
47625;SDS011;33342;45.574;9.252;2022-08-21T10:27:00;3.80;;;1.63;;
47625;SDS011;33342;45.574;9.252;2022-08-21T10:35:14;3.03;;;1.35;;
47625;SDS011;33342;45.574;9.252;2022-08-21T10:40:38;2.38;;;1.25;;
47625;SDS011;33342;45.574;9.252;2022-08-21T10:51:54;2.80;;;1.27;;
47625;SDS011;33342;45.574;9.252;2022-08-21T10:54:34;2.97;;;1.52;;
47625;SDS011;33342;45.574;9.252;2022-08-21T10:57:10;2.75;;;1.25;;
47625;SDS011;33342;45.574;9.252;2022-08-21T10:59:57;5.03;;;1.80;;
47625;SDS011;33342;45.574;9.252;2022-08-21T11:02:32;4.35;;;1.42;;
47625;SDS011;33342;45.574;9.252;2022-08-21T11:05:09;4.13;;;1.50;;
47625;SDS011;33342;45.574;9.252;2022-08-21T11:07:57;4.97;;;1.60;;
47625;SDS011;33342;45.574;9.252;2022-08-21T11:10:38;3.70;;;1.30;;
47625;SDS011;33342;45.574;9.252;2022-08-21T11:29:13;3.05;;;1.35;;
47625;SDS011;33342;45.574;9.252;2022-08-21T11:31:53;3.35;;;1.63;;
47625;SDS011;33342;45.574;9.252;2022-08-21T11:34:54;3.40;;;1.30;;
47625;SDS011;33342;45.574;9.252;2022-08-21T11:45:55;3.75;;;1.30;;
47625;SDS011;33342;45.574;9.252;2022-08-21T11:51:16;2.53;;;1.50;;
47625;SDS011;33342;45.574;9.252;2022-08-21T11:57:05;3.63;;;1.42;;
47625;SDS011;33342;45.574;9.252;2022-08-21T12:02:14;2.42;;;1.25;;
47625;SDS011;33342;45.574;9.252;2022-08-21T12:04:56;4.28;;;1.40;;
47625;SDS011;33342;45.574;9.252;2022-08-21T12:07:39;3.17;;;1.42;;
47625;SDS011;33342;45.574;9.252;2022-08-21T12:10:12;4.38;;;1.60;;
47625;SDS011;33342;45.574;9.252;2022-08-21T12:12:42;3.13;;;1.50;;
47625;SDS011;33342;45.574;9.252;2022-08-21T12:17:54;4.25;;;1.60;;
47625;SDS011;33342;45.574;9.252;2022-08-21T12:23:43;3.83;;;1.40;;
47625;SDS011;33342;45.574;9.252;2022-08-21T12:28:45;2.78;;;1.40;;
47625;SDS011;33342;45.574;9.252;2022-08-21T12:31:17;3.25;;;1.50;;
47625;SDS011;33342;45.574;9.252;2022-08-21T12:33:52;3.33;;;1.40;;
47625;SDS011;33342;45.574;9.252;2022-08-21T12:36:39;4.07;;;1.80;;
47625;SDS011;33342;45.574;9.252;2022-08-21T12:39:24;6.20;;;1.50;;
47625;SDS011;33342;45.574;9.252;2022-08-21T12:42:05;4.15;;;1.90;;
47625;SDS011;33342;45.574;9.252;2022-08-21T12:44:43;3.92;;;1.40;;
47625;SDS011;33342;45.574;9.252;2022-08-21T12:48:04;4.80;;;1.83;;
47625;SDS011;33342;45.574;9.252;2022-08-21T12:50:56;1.95;;;1.10;;
47625;SDS011;33342;45.574;9.252;2022-08-21T12:53:28;11.18;;;2.00;;
47625;SDS011;33342;45.574;9.252;2022-08-21T12:56:10;5.30;;;1.83;;
47625;SDS011;33342;45.574;9.252;2022-08-21T13:04:11;4.32;;;1.40;;
47625;SDS011;33342;45.574;9.252;2022-08-21T13:06:44;4.18;;;1.40;;
47625;SDS011;33342;45.574;9.252;2022-08-21T13:09:15;4.00;;;1.45;;
47625;SDS011;33342;45.574;9.252;2022-08-21T13:11:45;6.47;;;1.60;;
47625;SDS011;33342;45.574;9.252;2022-08-21T13:17:11;4.43;;;2.05;;
47625;SDS011;33342;45.574;9.252;2022-08-21T13:19:55;5.65;;;2.70;;
47625;SDS011;33342;45.574;9.252;2022-08-21T13:22:24;4.30;;;2.10;;
47625;SDS011;33342;45.574;9.252;2022-08-21T13:24:59;5.32;;;1.85;;
47625;SDS011;33342;45.574;9.252;2022-08-21T13:27:33;4.88;;;1.92;;
47625;SDS011;33342;45.574;9.252;2022-08-21T13:30:02;4.13;;;1.38;;
47625;SDS011;33342;45.574;9.252;2022-08-21T13:32:38;4.03;;;1.50;;
47625;SDS011;33342;45.574;9.252;2022-08-21T13:37:41;3.13;;;1.13;;
47625;SDS011;33342;45.574;9.252;2022-08-21T13:40:10;3.72;;;1.58;;
47625;SDS011;33342;45.574;9.252;2022-08-21T13:42:43;4.20;;;1.30;;
47625;SDS011;33342;45.574;9.252;2022-08-21T13:45:14;3.35;;;1.38;;
47625;SDS011;33342;45.574;9.252;2022-08-21T13:47:45;2.97;;;1.30;;
47625;SDS011;33342;45.574;9.252;2022-08-21T13:50:15;2.30;;;1.27;;
47625;SDS011;33342;45.574;9.252;2022-08-21T13:52:46;3.42;;;1.10;;
47625;SDS011;33342;45.574;9.252;2022-08-21T13:55:26;4.05;;;1.25;;
47625;SDS011;33342;45.574;9.252;2022-08-21T13:58:09;2.75;;;1.30;;
47625;SDS011;33342;45.574;9.252;2022-08-21T14:00:56;2.28;;;1.10;;
47625;SDS011;33342;45.574;9.252;2022-08-21T14:03:32;2.50;;;1.23;;
47625;SDS011;33342;45.574;9.252;2022-08-21T14:06:16;2.20;;;1.30;;
47625;SDS011;33342;45.574;9.252;2022-08-21T14:08:57;3.72;;;1.30;;
47625;SDS011;33342;45.574;9.252;2022-08-21T14:11:27;3.83;;;1.40;;
47625;SDS011;33342;45.574;9.252;2022-08-21T14:14:00;4.43;;;1.52;;
47625;SDS011;33342;45.574;9.252;2022-08-21T14:16:43;3.80;;;1.27;;
47625;SDS011;33342;45.574;9.252;2022-08-21T14:21:47;3.67;;;1.30;;
47625;SDS011;33342;45.574;9.252;2022-08-21T14:26:52;4.30;;;1.00;;
47625;SDS011;33342;45.574;9.252;2022-08-21T14:29:20;2.20;;;1.13;;
47625;SDS011;33342;45.574;9.252;2022-08-21T14:31:53;2.67;;;1.30;;
47625;SDS011;33342;45.574;9.252;2022-08-21T14:34:24;3.00;;;1.30;;
47625;SDS011;33342;45.574;9.252;2022-08-21T14:36:58;3.47;;;1.30;;
47625;SDS011;33342;45.574;9.252;2022-08-21T14:39:28;2.45;;;1.10;;
47625;SDS011;33342;45.574;9.252;2022-08-21T14:41:55;4.53;;;1.35;;
47625;SDS011;33342;45.574;9.252;2022-08-21T14:44:24;1.92;;;1.10;;
47625;SDS011;33342;45.574;9.252;2022-08-21T14:46:51;3.47;;;1.40;;
47625;SDS011;33342;45.574;9.252;2022-08-21T14:49:25;3.75;;;1.20;;
47625;SDS011;33342;45.574;9.252;2022-08-21T14:51:55;2.95;;;1.70;;
47625;SDS011;33342;45.574;9.252;2022-08-21T14:54:25;2.53;;;1.05;;
47625;SDS011;33342;45.574;9.252;2022-08-21T14:57:01;2.47;;;1.20;;
47625;SDS011;33342;45.574;9.252;2022-08-21T14:59:31;2.97;;;1.10;;
47625;SDS011;33342;45.574;9.252;2022-08-21T15:01:59;2.85;;;1.40;;
47625;SDS011;33342;45.574;9.252;2022-08-21T15:04:27;4.22;;;1.20;;
47625;SDS011;33342;45.574;9.252;2022-08-21T15:06:55;2.25;;;1.00;;
47625;SDS011;33342;45.574;9.252;2022-08-21T15:09:22;2.83;;;1.05;;
47625;SDS011;33342;45.574;9.252;2022-08-21T15:11:51;2.05;;;1.08;;
47625;SDS011;33342;45.574;9.252;2022-08-21T15:14:23;3.30;;;1.25;;
47625;SDS011;33342;45.574;9.252;2022-08-21T15:16:52;3.25;;;1.10;;
47625;SDS011;33342;45.574;9.252;2022-08-21T15:19:19;3.15;;;1.10;;
47625;SDS011;33342;45.574;9.252;2022-08-21T15:21:49;2.20;;;1.10;;
47625;SDS011;33342;45.574;9.252;2022-08-21T15:24:16;2.53;;;1.20;;
47625;SDS011;33342;45.574;9.252;2022-08-21T15:26:44;1.95;;;1.13;;
47625;SDS011;33342;45.574;9.252;2022-08-21T15:29:15;2.75;;;1.10;;
47625;SDS011;33342;45.574;9.252;2022-08-21T15:31:52;2.05;;;1.00;;
47625;SDS011;33342;45.574;9.252;2022-08-21T15:34:21;2.88;;;1.40;;
47625;SDS011;33342;45.574;9.252;2022-08-21T15:36:53;2.60;;;1.17;;
47625;SDS011;33342;45.574;9.252;2022-08-21T15:39:23;2.55;;;1.00;;
47625;SDS011;33342;45.574;9.252;2022-08-21T15:41:57;1.70;;;1.00;;
47625;SDS011;33342;45.574;9.252;2022-08-21T15:44:36;2.17;;;1.20;;
47625;SDS011;33342;45.574;9.252;2022-08-21T15:47:42;2.88;;;1.25;;
47625;SDS011;33342;45.574;9.252;2022-08-21T15:50:06;2.15;;;1.20;;
47625;SDS011;33342;45.574;9.252;2022-08-21T15:52:35;2.78;;;1.27;;
47625;SDS011;33342;45.574;9.252;2022-08-21T15:55:03;2.85;;;1.40;;
47625;SDS011;33342;45.574;9.252;2022-08-21T15:57:31;2.38;;;1.17;;
47625;SDS011;33342;45.574;9.252;2022-08-21T16:00:04;3.15;;;1.45;;
47625;SDS011;33342;45.574;9.252;2022-08-21T16:02:39;3.15;;;1.60;;
47625;SDS011;33342;45.574;9.252;2022-08-21T16:05:11;2.63;;;1.10;;
47625;SDS011;33342;45.574;9.252;2022-08-21T16:07:41;1.40;;;0.80;;
47625;SDS011;33342;45.574;9.252;2022-08-21T16:10:10;3.90;;;1.02;;
47625;SDS011;33342;45.574;9.252;2022-08-21T16:12:38;4.15;;;1.40;;
47625;SDS011;33342;45.574;9.252;2022-08-21T16:15:12;3.83;;;1.20;;
47625;SDS011;33342;45.574;9.252;2022-08-21T16:17:46;2.83;;;1.42;;
47625;SDS011;33342;45.574;9.252;2022-08-21T16:20:17;1.88;;;1.10;;
47625;SDS011;33342;45.574;9.252;2022-08-21T16:22:46;2.40;;;1.33;;
47625;SDS011;33342;45.574;9.252;2022-08-21T16:25:14;2.47;;;1.20;;
47625;SDS011;33342;45.574;9.252;2022-08-21T16:27:43;3.10;;;1.10;;
47625;SDS011;33342;45.574;9.252;2022-08-21T16:30:14;2.47;;;1.40;;
47625;SDS011;33342;45.574;9.252;2022-08-21T16:32:42;1.60;;;0.90;;
47625;SDS011;33342;45.574;9.252;2022-08-21T16:35:11;4.35;;;1.33;;
47625;SDS011;33342;45.574;9.252;2022-08-21T16:37:40;3.13;;;1.15;;
47625;SDS011;33342;45.574;9.252;2022-08-21T16:40:08;2.70;;;1.13;;
47625;SDS011;33342;45.574;9.252;2022-08-21T16:42:40;3.30;;;0.98;;
47625;SDS011;33342;45.574;9.252;2022-08-21T16:45:12;3.05;;;1.20;;
47625;SDS011;33342;45.574;9.252;2022-08-21T16:47:42;3.10;;;1.52;;
47625;SDS011;33342;45.574;9.252;2022-08-21T16:50:14;2.38;;;1.20;;
47625;SDS011;33342;45.574;9.252;2022-08-21T16:52:44;1.80;;;1.17;;
47625;SDS011;33342;45.574;9.252;2022-08-21T16:55:11;3.45;;;1.52;;
47625;SDS011;33342;45.574;9.252;2022-08-21T16:57:39;2.97;;;1.20;;
47625;SDS011;33342;45.574;9.252;2022-08-21T17:00:07;3.38;;;1.40;;
47625;SDS011;33342;45.574;9.252;2022-08-21T17:02:39;2.13;;;1.00;;
47625;SDS011;33342;45.574;9.252;2022-08-21T17:05:11;3.17;;;1.27;;
47625;SDS011;33342;45.574;9.252;2022-08-21T17:07:40;3.22;;;1.17;;